createdAt,value
2019-04-20T00:01:26.308Z,58.28
2019-04-20T00:03:55.307Z,58.59
2019-04-20T00:06:31.754Z,58.80
2019-04-20T00:09:09.705Z,59.03
2019-04-20T00:11:50.241Z,59.35
2019-04-20T00:14:17.257Z,59.09
2019-04-20T00:16:46.052Z,59.17
2019-04-20T00:19:26.166Z,59.31
2019-04-20T00:21:59.587Z,59.40
2019-04-20T00:24:37.224Z,59.74
2019-04-20T00:27:32.850Z,59.61
2019-04-20T00:30:00.149Z,59.50
2019-04-20T00:32:29.529Z,59.62
2019-04-20T00:34:51.164Z,59.36
2019-04-20T00:37:23.439Z,59.06
2019-04-20T00:39:56.481Z,57.26
2019-04-20T00:42:33.960Z,56.95
2019-04-20T00:45:10.726Z,56.52
2019-04-20T00:47:45.399Z,56.62
2019-04-20T00:50:29.762Z,56.39
2019-04-20T00:52:55.597Z,56.39
2019-04-20T00:55:17.041Z,55.94
2019-04-20T00:57:55.341Z,55.98
2019-04-20T01:00:38.310Z,56.26
2019-04-20T01:03:15.787Z,56.46
2019-04-20T01:05:52.943Z,56.38
2019-04-20T01:08:08.173Z,56.31
2019-04-20T01:10:47.208Z,56.17
2019-04-20T01:13:18.696Z,56.07
2019-04-20T01:15:55.353Z,56.21
2019-04-20T01:18:24.054Z,56.01
2019-04-20T01:21:00.301Z,56.28
2019-04-20T01:23:38.225Z,56.31
2019-04-20T01:26:10.937Z,56.10
2019-04-20T01:28:54.203Z,56.02
2019-04-20T01:31:25.371Z,56.28
2019-04-20T01:33:56.591Z,56.32
2019-04-20T01:36:40.628Z,56.49
2019-04-20T01:39:09.214Z,56.62
2019-04-20T01:41:28.512Z,56.61
2019-04-20T01:44:00.583Z,56.52
2019-04-20T01:46:33.747Z,56.54
2019-04-20T01:49:11.501Z,56.46
2019-04-20T01:51:55.603Z,56.75
2019-04-20T01:54:29.858Z,56.49
2019-04-20T01:56:58.891Z,56.47
2019-04-20T01:59:37.095Z,56.94
2019-04-20T02:02:14.059Z,56.96
2019-04-20T02:04:47.311Z,56.82
2019-04-20T02:07:25.567Z,57.09
2019-04-20T02:09:58.295Z,57.27
2019-04-20T02:12:31.158Z,57.27
2019-04-20T02:15:04.326Z,57.42
2019-04-20T02:17:40.811Z,57.40
2019-04-20T02:20:28.696Z,57.51
2019-04-20T02:22:59.410Z,57.59
2019-04-20T02:25:18.555Z,57.70
2019-04-20T02:27:57.823Z,57.68
2019-04-20T02:31:06.340Z,57.77
2019-04-20T02:36:15.476Z,58.12
2019-04-20T02:39:05.860Z,58.15
2019-04-20T02:41:17.890Z,58.38
2019-04-20T02:46:24.835Z,58.43
2019-04-20T02:49:01.028Z,58.46
2019-04-20T02:51:35.460Z,58.47
2019-04-20T02:56:49.217Z,58.56
2019-04-20T02:59:43.226Z,58.57
2019-04-20T03:01:36.660Z,58.64
2019-04-20T03:03:54.938Z,58.93
2019-04-20T03:06:36.443Z,59.19
2019-04-20T03:09:20.370Z,59.08
2019-04-20T03:11:59.648Z,59.09
2019-04-20T03:14:21.790Z,59.14
2019-04-20T03:16:54.770Z,59.56
2019-04-20T03:19:23.679Z,59.59
2019-04-20T03:22:09.829Z,59.59
2019-04-20T03:24:43.928Z,59.49
2019-04-20T03:27:14.870Z,59.54
2019-04-20T03:29:46.976Z,59.45
2019-04-20T03:32:50.091Z,59.42
2019-04-20T03:35:08.132Z,59.29
2019-04-20T03:37:36.981Z,59.23
2019-04-20T03:39:56.817Z,59.27
2019-04-20T03:42:18.186Z,59.30
2019-04-20T03:44:57.068Z,59.27
2019-04-20T03:47:34.881Z,59.04
2019-04-20T03:50:18.526Z,58.73
2019-04-20T03:52:58.322Z,58.60
2019-04-20T03:55:44.574Z,58.68
2019-04-20T03:58:24.162Z,58.19
2019-04-20T04:01:16.309Z,58.29
2019-04-20T04:04:02.624Z,58.07
2019-04-20T04:06:24.262Z,58.23
2019-04-20T04:09:02.801Z,58.45
2019-04-20T04:11:37.904Z,58.58
2019-04-20T04:13:54.660Z,58.56
2019-04-20T04:16:32.822Z,58.77
2019-04-20T04:19:10.067Z,58.45
2019-04-20T04:21:46.824Z,58.52
2019-04-20T04:24:21.192Z,58.50
2019-04-20T04:26:55.997Z,58.14
2019-04-20T04:29:35.588Z,58.35
2019-04-20T04:32:12.091Z,58.14
2019-04-20T04:34:38.518Z,57.93
2019-04-20T04:37:17.624Z,57.71
2019-04-20T04:39:49.242Z,57.59
2019-04-20T04:42:37.808Z,58.47
2019-04-20T04:44:46.786Z,58.26
2019-04-20T04:47:13.396Z,58.13
2019-04-20T04:49:53.875Z,57.91
2019-04-20T04:52:27.524Z,57.26
2019-04-20T04:54:58.753Z,56.92
2019-04-20T04:57:24.838Z,56.41
2019-04-20T04:59:57.314Z,54.94
2019-04-20T05:02:39.335Z,54.86
2019-04-20T05:05:37.787Z,54.35
2019-04-20T05:08:01.883Z,54.76
2019-04-20T05:10:22.393Z,54.06
2019-04-20T05:12:54.814Z,54.69
2019-04-20T05:15:41.276Z,54.85
2019-04-20T05:18:20.659Z,54.78
2019-04-20T05:20:58.803Z,54.88
2019-04-20T05:23:28.078Z,53.54
2019-04-20T05:26:13.801Z,53.64
2019-04-20T05:28:48.607Z,54.00
2019-04-20T05:31:12.232Z,54.08
2019-04-20T05:34:10.847Z,53.49
2019-04-20T05:36:41.498Z,52.27
2019-04-20T05:39:23.587Z,53.21
2019-04-20T05:41:42.937Z,53.02
2019-04-20T05:44:17.029Z,52.90
2019-04-20T05:46:56.563Z,51.96
2019-04-20T05:49:33.123Z,52.34
2019-04-20T05:52:10.260Z,52.45
2019-04-20T05:54:39.099Z,52.30
2019-04-20T05:57:17.206Z,51.90
2019-04-20T05:59:54.305Z,52.06
2019-04-20T06:02:16.865Z,51.85
2019-04-20T06:04:59.959Z,51.07
2019-04-20T06:07:27.151Z,50.81
2019-04-20T06:09:59.422Z,50.33
2019-04-20T06:12:31.841Z,50.92
2019-04-20T06:15:09.467Z,50.64
2019-04-20T06:18:03.844Z,50.71
2019-04-20T06:20:41.221Z,49.83
2019-04-20T06:23:38.706Z,51.57
2019-04-20T06:26:33.548Z,50.37
2019-04-20T06:28:38.801Z,50.99
2019-04-20T06:31:26.697Z,50.37
2019-04-20T06:34:27.137Z,50.12
2019-04-20T06:36:49.829Z,49.79
2019-04-20T06:47:10.370Z,49.08
2019-04-20T06:49:40.618Z,48.60
2019-04-20T06:55:05.155Z,46.03
2019-04-20T07:00:15.634Z,46.47
2019-04-20T07:02:48.553Z,46.86
2019-04-20T07:08:00.762Z,46.89
2019-04-20T07:10:34.696Z,45.89
2019-04-20T07:12:59.804Z,45.91
2019-04-20T07:15:41.189Z,45.44
2019-04-20T07:18:25.407Z,43.48
2019-04-20T07:21:17.211Z,43.78
2019-04-20T07:23:35.255Z,42.23
2019-04-20T07:26:09.543Z,44.22
2019-04-20T07:31:08.476Z,44.69
2019-04-20T07:33:48.231Z,43.56
2019-04-20T07:36:27.976Z,43.33
2019-04-20T07:38:56.799Z,43.68
2019-04-20T07:41:33.183Z,43.11
2019-04-20T07:44:07.295Z,43.23
2019-04-20T07:46:47.500Z,43.25
2019-04-20T07:49:07.676Z,43.26
2019-04-20T07:51:26.602Z,41.70
2019-04-20T07:54:23.240Z,41.55
2019-04-20T07:56:50.507Z,41.90
2019-04-20T07:59:14.963Z,41.89
2019-04-20T08:02:15.971Z,40.31
2019-04-20T08:04:43.498Z,41.49
2019-04-20T08:07:03.524Z,40.39
2019-04-20T08:09:42.200Z,40.33
2019-04-20T08:12:51.796Z,40.99
2019-04-20T08:15:32.444Z,35.89
2019-04-20T08:18:10.380Z,34.98
2019-04-20T08:20:24.558Z,36.59
2019-04-20T08:23:12.275Z,37.87
2019-04-20T08:25:27.794Z,38.12
2019-04-20T08:28:13.567Z,39.10
2019-04-20T08:31:09.445Z,38.48
2019-04-20T08:34:04.415Z,38.89
2019-04-20T08:36:30.091Z,38.14
2019-04-20T08:41:28.901Z,36.56
2019-04-20T08:44:21.110Z,36.87
2019-04-20T08:46:45.566Z,37.13
2019-04-20T08:49:20.468Z,34.86
2019-04-20T08:51:59.952Z,36.09
2019-04-20T08:54:18.100Z,35.64
2019-04-20T08:56:43.439Z,36.42
2019-04-20T08:59:09.374Z,37.93
2019-04-20T09:01:44.479Z,37.80
2019-04-20T09:04:25.464Z,33.18
2019-04-20T09:07:04.468Z,36.28
2019-04-20T09:10:00.389Z,35.86
2019-04-20T09:12:15.860Z,33.47
2019-04-20T09:14:34.751Z,32.55
2019-04-20T09:17:11.459Z,34.00
2019-04-20T09:19:52.707Z,34.13
2019-04-20T09:22:40.618Z,34.94
2019-04-20T09:28:14.516Z,32.49
2019-04-20T09:30:51.183Z,33.90
2019-04-20T09:33:48.703Z,30.49
2019-04-20T09:36:18.240Z,33.75
2019-04-20T09:39:05.895Z,32.86
2019-04-20T09:41:58.953Z,33.82
2019-04-20T09:44:11.012Z,29.83
2019-04-20T09:46:48.987Z,33.83
2019-04-20T09:49:30.718Z,35.39
2019-04-20T09:52:06.609Z,34.22
2019-04-20T09:54:41.638Z,32.48
2019-04-20T09:57:21.313Z,34.25
2019-04-20T09:59:52.653Z,31.62
2019-04-20T10:02:11.240Z,33.57
2019-04-20T10:04:39.810Z,30.47
2019-04-20T10:07:17.637Z,29.61
2019-04-20T10:09:47.340Z,32.63
2019-04-20T10:12:20.151Z,31.43
2019-04-20T10:14:53.197Z,30.21
2019-04-20T10:17:27.217Z,31.43
2019-04-20T10:20:02.553Z,29.68
2019-04-20T10:22:32.929Z,30.66
2019-04-20T10:25:06.644Z,29.97
2019-04-20T10:27:40.612Z,31.89
2019-04-20T10:30:12.555Z,28.67
2019-04-20T10:32:47.175Z,26.99
2019-04-20T10:35:18.822Z,28.41
2019-04-20T10:38:05.312Z,28.02
2019-04-20T10:40:47.547Z,30.34
2019-04-20T10:43:12.018Z,27.70
2019-04-20T10:45:44.860Z,29.81
2019-04-20T10:48:17.315Z,29.26
2019-04-20T10:50:49.352Z,28.04
2019-04-20T10:53:21.827Z,28.38
2019-04-20T10:55:53.880Z,30.33
2019-04-20T10:58:25.686Z,26.97
2019-04-20T11:00:57.776Z,27.83
2019-04-20T11:03:29.779Z,29.12
2019-04-20T11:06:02.769Z,28.26
2019-04-20T11:08:34.918Z,27.94
2019-04-20T11:11:14.602Z,28.87
2019-04-20T11:13:41.466Z,28.89
2019-04-20T11:16:14.712Z,30.45
2019-04-20T11:18:47.305Z,28.24
2019-04-20T11:21:19.629Z,27.76
2019-04-20T11:23:54.038Z,27.91
2019-04-20T11:26:28.496Z,27.80
2019-04-20T11:29:00.600Z,26.86
2019-04-20T11:31:40.571Z,29.26
2019-04-20T11:34:06.060Z,28.28
2019-04-20T11:36:39.234Z,26.60
2019-04-20T11:39:12.820Z,27.32
2019-04-20T11:41:45.722Z,24.11
2019-04-20T11:44:17.933Z,24.40
2019-04-20T11:46:50.368Z,26.33
2019-04-20T11:49:23.558Z,25.54
2019-04-20T11:51:57.243Z,25.27
2019-04-20T11:54:30.430Z,26.34
2019-04-20T11:57:03.715Z,27.52
2019-04-20T11:59:37.031Z,25.24
2019-04-20T12:02:21.491Z,25.14
2019-04-20T12:04:59.929Z,23.90
2019-04-20T12:07:24.770Z,23.43
2019-04-20T12:09:58.498Z,23.02
2019-04-20T12:12:39.997Z,23.81
2019-04-20T12:15:04.497Z,24.41
2019-04-20T12:17:37.720Z,23.11
2019-04-20T12:20:10.184Z,24.92
2019-04-20T12:22:42.218Z,23.45
2019-04-20T12:25:14.665Z,23.21
2019-04-20T12:27:50.837Z,24.72
2019-04-20T12:30:21.748Z,22.59
2019-04-20T12:32:57.653Z,24.14
2019-04-20T12:35:27.372Z,23.39
2019-04-20T12:37:59.266Z,22.92
2019-04-20T12:40:32.357Z,22.08
2019-04-20T12:43:04.762Z,20.06
2019-04-20T12:45:37.792Z,22.39
2019-04-20T12:48:09.754Z,21.22
2019-04-20T12:50:41.839Z,23.94
2019-04-20T12:53:14.816Z,21.80
2019-04-20T12:55:46.830Z,22.51
2019-04-20T12:58:18.782Z,23.34
2019-04-20T13:00:54.237Z,23.19
2019-04-20T13:03:27.567Z,17.82
2019-04-20T13:05:59.483Z,19.28
2019-04-20T13:08:36.829Z,17.09
2019-04-20T13:11:10.988Z,16.64
2019-04-20T13:14:06.347Z,16.99
2019-04-20T13:16:39.073Z,17.20
2019-04-20T13:19:11.199Z,16.78
2019-04-20T13:21:43.233Z,15.74
2019-04-20T13:24:15.191Z,16.88
2019-04-20T13:26:49.001Z,19.47
2019-04-20T13:29:21.132Z,20.06
2019-04-20T13:31:54.590Z,19.78
2019-04-20T13:34:26.559Z,18.93
2019-04-20T13:36:58.530Z,19.66
2019-04-20T13:39:30.979Z,17.39
2019-04-20T13:42:11.426Z,14.49
2019-04-20T13:44:36.963Z,14.59
2019-04-20T13:47:09.153Z,15.33
2019-04-20T13:49:41.111Z,13.44
2019-04-20T13:52:12.962Z,13.84
2019-04-20T13:54:45.262Z,13.84
2019-04-20T13:57:24.537Z,12.47
2019-04-20T14:00:02.379Z,13.28
2019-04-20T14:02:42.643Z,13.77
2019-04-20T14:05:16.924Z,13.71
2019-04-20T14:07:49.313Z,13.41
2019-04-20T14:10:22.041Z,13.08
2019-04-20T14:13:01.717Z,11.64
2019-04-20T14:15:29.005Z,11.65
2019-04-20T14:18:02.256Z,12.88
2019-04-20T14:20:34.358Z,12.32
2019-04-20T14:23:07.395Z,13.17
2019-04-20T14:25:39.303Z,12.95
2019-04-20T14:28:11.381Z,13.41
2019-04-20T14:30:45.787Z,13.88
2019-04-20T14:33:18.954Z,13.76
2019-04-20T14:35:51.009Z,13.80
2019-04-20T14:38:24.063Z,14.53
2019-04-20T14:40:56.160Z,15.19
2019-04-20T14:43:30.217Z,15.58
2019-04-20T14:46:02.947Z,15.71
2019-04-20T14:48:36.514Z,15.54
2019-04-20T14:51:09.783Z,15.86
2019-04-20T14:53:43.188Z,15.92
2019-04-20T14:56:15.672Z,16.17
2019-04-20T14:58:47.276Z,15.30
2019-04-20T15:01:36.856Z,15.30
2019-04-20T15:04:13.458Z,15.34
2019-04-20T15:06:42.518Z,15.30
2019-04-20T15:09:14.794Z,17.07
2019-04-20T15:11:46.758Z,16.96
2019-04-20T15:14:18.795Z,16.90
2019-04-20T15:16:50.941Z,16.03
2019-04-20T15:19:25.409Z,15.32
2019-04-20T15:21:59.823Z,15.40
2019-04-20T15:24:31.756Z,14.79
2019-04-20T15:27:04.767Z,14.86
2019-04-20T15:29:38.159Z,13.89
2019-04-20T15:32:10.313Z,13.72
2019-04-20T15:34:42.693Z,13.19
2019-04-20T15:37:14.647Z,13.55
2019-04-20T15:39:47.832Z,13.74
2019-04-20T15:42:19.671Z,14.98
2019-04-20T15:44:51.634Z,15.54
2019-04-20T15:47:23.568Z,15.54
2019-04-20T15:49:55.984Z,16.81
2019-04-20T15:52:36.277Z,17.05
2019-04-20T15:55:10.315Z,17.32
2019-04-20T15:57:36.495Z,17.82
2019-04-20T16:00:10.766Z,18.13
2019-04-20T16:02:47.409Z,18.64
2019-04-20T16:05:22.036Z,18.36
2019-04-20T16:07:58.586Z,18.60
2019-04-20T16:10:28.591Z,18.43
2019-04-20T16:13:11.805Z,18.96
2019-04-20T16:15:35.848Z,19.02
2019-04-20T16:18:10.097Z,19.02
2019-04-20T16:20:50.701Z,19.47
2019-04-20T16:23:16.638Z,19.10
2019-04-20T16:26:07.801Z,19.29
2019-04-20T16:28:39.979Z,18.98
2019-04-20T16:31:14.104Z,18.97
2019-04-20T16:33:46.483Z,19.66
2019-04-20T16:36:18.733Z,19.87
2019-04-20T16:38:51.125Z,20.90
2019-04-20T16:41:24.273Z,20.50
2019-04-20T16:43:57.478Z,20.25
2019-04-20T16:46:30.101Z,20.21
2019-04-20T16:49:03.035Z,20.38
2019-04-20T16:51:34.965Z,20.46
2019-04-20T16:54:07.780Z,20.55
2019-04-20T16:56:39.604Z,20.64
2019-04-20T16:59:12.170Z,21.49
2019-04-20T17:01:44.944Z,21.63
2019-04-20T17:04:22.016Z,21.97
2019-04-20T17:07:10.176Z,22.18
2019-04-20T17:09:43.928Z,22.40
2019-04-20T17:12:15.834Z,22.71
2019-04-20T17:14:47.716Z,23.15
2019-04-20T17:17:19.774Z,23.63
2019-04-20T17:19:51.864Z,23.58
2019-04-20T17:22:23.855Z,24.01
2019-04-20T17:24:56.175Z,24.89
2019-04-20T17:27:46.793Z,24.65
2019-04-20T17:30:24.916Z,25.43
2019-04-20T17:33:02.252Z,25.95
2019-04-20T17:35:43.471Z,25.95
2019-04-20T17:38:08.946Z,26.20
2019-04-20T17:41:01.546Z,26.10
2019-04-20T17:43:25.363Z,26.18
2019-04-20T17:45:57.865Z,26.56
2019-04-20T17:48:37.148Z,26.94
2019-04-20T17:51:17.728Z,27.00
2019-04-20T17:53:44.659Z,27.74
2019-04-20T17:56:10.434Z,28.80
2019-04-20T17:58:43.872Z,29.22
2019-04-20T18:01:51.911Z,30.05
2019-04-20T18:04:41.836Z,30.73
2019-04-20T18:06:58.017Z,30.68
2019-04-20T18:09:44.914Z,31.18
2019-04-20T18:11:59.622Z,31.11
2019-04-20T18:14:43.091Z,32.44
2019-04-20T18:17:17.756Z,31.87
2019-04-20T18:19:41.242Z,32.65
2019-04-20T18:22:13.964Z,33.60
2019-04-20T18:25:10.411Z,33.99
2019-04-20T18:27:37.571Z,34.36
2019-04-20T18:30:11.720Z,35.51
2019-04-20T18:32:29.529Z,35.37
2019-04-20T18:35:06.973Z,35.29
2019-04-20T18:37:36.662Z,36.42
2019-04-20T18:40:14.421Z,36.69
2019-04-20T18:42:44.202Z,36.28
2019-04-20T18:45:29.608Z,36.69
2019-04-20T18:48:11.681Z,36.46
2019-04-20T18:50:32.869Z,37.45
2019-04-20T18:52:58.135Z,38.39
2019-04-20T18:55:40.942Z,38.59
2019-04-20T18:58:04.710Z,38.02
2019-04-20T19:00:41.896Z,39.40
2019-04-20T19:03:18.146Z,39.89
2019-04-20T19:05:43.915Z,39.85
2019-04-20T19:08:18.030Z,39.95
2019-04-20T19:10:57.560Z,40.14
2019-04-20T19:13:42.355Z,40.11
2019-04-20T19:16:31.264Z,40.47
2019-04-20T19:19:09.922Z,41.20
2019-04-20T19:21:35.429Z,41.45
2019-04-20T19:24:12.676Z,42.03
2019-04-20T19:26:44.955Z,42.85
2019-04-20T19:29:23.228Z,43.88
2019-04-20T19:32:07.298Z,43.83
2019-04-20T19:34:37.775Z,43.76
2019-04-20T19:37:04.084Z,44.08
2019-04-20T19:39:44.880Z,45.15
2019-04-20T19:42:18.183Z,45.73
2019-04-20T19:44:51.624Z,43.93
2019-04-20T19:47:28.420Z,43.50
2019-04-20T19:49:56.502Z,43.54
2019-04-20T19:52:43.355Z,43.17
2019-04-20T19:55:10.586Z,43.08
2019-04-20T19:57:42.925Z,43.01
2019-04-20T19:59:58.726Z,43.30
2019-04-20T20:02:31.900Z,43.43
2019-04-20T20:05:08.712Z,43.30
2019-04-20T20:07:42.616Z,43.65
2019-04-20T20:10:12.864Z,43.69
2019-04-20T20:12:49.683Z,44.13
2019-04-20T20:15:26.157Z,43.87
2019-04-20T20:18:11.222Z,44.76
2019-04-20T20:20:47.450Z,45.04
2019-04-20T20:23:00.694Z,45.22
2019-04-20T20:25:37.319Z,45.91
2019-04-20T20:28:25.873Z,46.37
2019-04-20T20:30:53.817Z,46.79
2019-04-20T20:33:27.837Z,46.40
2019-04-20T20:35:58.546Z,45.85
2019-04-20T20:38:27.972Z,45.92
2019-04-20T20:41:05.709Z,45.85
2019-04-20T20:43:40.754Z,45.93
2019-04-20T20:46:18.418Z,45.93
2019-04-20T20:49:00.518Z,46.06
2019-04-20T20:51:34.617Z,46.21
2019-04-20T20:53:54.400Z,46.50
2019-04-20T20:56:24.403Z,46.38
2019-04-20T20:59:01.799Z,46.51
2019-04-20T21:01:27.525Z,46.79
2019-04-20T21:03:58.513Z,46.84
2019-04-20T21:06:32.857Z,46.93
2019-04-20T21:09:06.258Z,46.91
2019-04-20T21:11:40.157Z,46.84
2019-04-20T21:14:21.052Z,47.07
2019-04-20T21:16:57.605Z,46.79
2019-04-20T21:19:35.303Z,46.88
2019-04-20T21:22:04.462Z,47.05
2019-04-20T21:24:30.286Z,47.34
2019-04-20T21:27:08.862Z,47.46
2019-04-20T21:29:45.361Z,47.60
2019-04-20T21:32:14.369Z,47.83
2019-04-20T21:34:49.305Z,48.04
2019-04-20T21:37:20.084Z,48.03
2019-04-20T21:39:56.041Z,48.07
2019-04-20T21:42:28.186Z,48.22
2019-04-20T21:45:08.127Z,48.57
2019-04-20T21:47:36.294Z,48.42
2019-04-20T21:50:27.124Z,48.55
2019-04-20T21:52:46.671Z,48.86
2019-04-20T21:55:16.191Z,49.20
2019-04-20T21:57:51.687Z,49.52
2019-04-20T22:00:39.790Z,49.73
2019-04-20T22:03:11.281Z,49.88
2019-04-20T22:05:42.323Z,50.12
2019-04-20T22:08:16.444Z,50.17
2019-04-20T22:10:50.294Z,50.85
2019-04-20T22:13:28.224Z,50.30
2019-04-20T22:16:02.015Z,50.20
2019-04-20T22:18:31.872Z,50.30
2019-04-20T22:21:12.817Z,50.89
2019-04-20T22:23:57.232Z,50.99
2019-04-20T22:26:24.339Z,51.16
2019-04-20T22:28:44.576Z,51.54
2019-04-20T22:31:16.463Z,51.71
2019-04-20T22:33:48.832Z,52.11
2019-04-20T22:36:25.977Z,52.34
2019-04-20T22:39:09.807Z,52.71
2019-04-20T22:41:52.441Z,52.99
2019-04-20T22:44:22.456Z,53.04
2019-04-20T22:46:54.279Z,53.39
2019-04-20T22:49:41.348Z,53.92
2019-04-20T22:52:13.267Z,54.43
2019-04-20T22:54:48.874Z,54.59
2019-04-20T22:57:19.344Z,54.78
2019-04-20T22:59:52.448Z,55.08
2019-04-20T23:02:16.285Z,55.71
2019-04-20T23:04:48.810Z,55.94
2019-04-20T23:07:20.981Z,56.09
2019-04-20T23:09:56.448Z,56.26
2019-04-20T23:12:27.570Z,56.11
2019-04-20T23:15:00.478Z,56.33
2019-04-20T23:17:39.811Z,56.52
2019-04-20T23:20:15.351Z,56.93
2019-04-20T23:22:45.660Z,57.44
2019-04-20T23:25:15.404Z,57.85
2019-04-20T23:27:51.174Z,57.60
2019-04-20T23:30:26.230Z,57.92
2019-04-20T23:32:55.942Z,58.10
2019-04-20T23:35:28.653Z,58.12
2019-04-20T23:38:08.404Z,58.66
2019-04-20T23:40:35.070Z,58.90
2019-04-20T23:43:28.176Z,59.43
2019-04-20T23:46:20.942Z,59.55
2019-04-20T23:49:13.550Z,59.96
2019-04-20T23:51:59.152Z,60.00
2019-04-20T23:54:20.196Z,60.40
2019-04-20T23:56:48.002Z,60.71
2019-04-20T23:59:30.667Z,60.75
